createdAt,value
2022-12-23T00:01:57.294Z,86.10
2022-12-23T00:04:23.662Z,86.22
2022-12-23T00:06:49.960Z,86.15
2022-12-23T00:09:16.317Z,85.89
2022-12-23T00:11:42.729Z,85.87
2022-12-23T00:14:09.837Z,85.79
2022-12-23T00:16:35.448Z,85.75
2022-12-23T00:19:01.680Z,86.17
2022-12-23T00:21:28.057Z,86.60
2022-12-23T00:23:54.368Z,86.80
2022-12-23T00:26:20.719Z,86.92
2022-12-23T00:28:47.190Z,86.85
2022-12-23T00:31:13.673Z,86.75
2022-12-23T00:33:39.917Z,86.28
2022-12-23T00:36:06.360Z,85.84
2022-12-23T00:38:32.643Z,85.50
2022-12-23T00:40:58.996Z,85.55
2022-12-23T00:43:25.363Z,85.38
2022-12-23T00:45:51.736Z,85.01
2022-12-23T00:48:18.046Z,84.87
2022-12-23T00:50:44.386Z,84.70
2022-12-23T00:53:10.742Z,84.68
2022-12-23T00:55:37.080Z,84.87
2022-12-23T00:58:03.508Z,85.57
2022-12-23T01:00:29.858Z,85.84
2022-12-23T01:02:56.291Z,86.11
2022-12-23T01:05:22.547Z,86.09
2022-12-23T01:07:48.859Z,86.10
2022-12-23T01:10:15.202Z,86.24
2022-12-23T01:12:41.557Z,86.49
2022-12-23T01:15:07.938Z,86.44
2022-12-23T01:17:34.262Z,86.42
2022-12-23T01:20:00.639Z,86.25
2022-12-23T01:22:26.956Z,86.35
2022-12-23T01:24:53.304Z,86.39
2022-12-23T01:27:19.651Z,86.34
2022-12-23T01:29:46.009Z,86.41
2022-12-23T01:32:12.412Z,86.52
2022-12-23T01:34:38.692Z,86.41
2022-12-23T01:37:05.094Z,85.87
2022-12-23T01:39:31.444Z,85.65
2022-12-23T01:41:57.824Z,85.56
2022-12-23T01:44:24.123Z,85.83
2022-12-23T01:46:50.505Z,86.14
2022-12-23T01:49:16.817Z,86.25
2022-12-23T01:51:43.165Z,86.32
2022-12-23T01:54:09.528Z,86.09
2022-12-23T01:56:35.866Z,85.98
2022-12-23T01:59:02.194Z,85.82
2022-12-23T02:01:28.686Z,85.98
2022-12-23T02:03:54.957Z,86.10
2022-12-23T02:06:21.343Z,86.10
2022-12-23T02:08:47.682Z,85.90
2022-12-23T02:11:14.026Z,86.06
2022-12-23T02:13:40.341Z,86.13
2022-12-23T02:16:06.682Z,86.09
2022-12-23T02:18:32.998Z,86.20
2022-12-23T02:20:59.389Z,86.13
2022-12-23T02:23:25.759Z,85.95
2022-12-23T02:25:52.088Z,85.70
2022-12-23T02:28:18.411Z,85.91
2022-12-23T02:30:44.849Z,86.03
2022-12-23T02:33:11.182Z,85.96
2022-12-23T02:35:37.567Z,85.86
2022-12-23T02:38:03.889Z,85.89
2022-12-23T02:40:30.224Z,86.10
2022-12-23T02:42:56.550Z,86.33
2022-12-23T02:45:22.918Z,86.47
2022-12-23T02:47:49.280Z,86.73
2022-12-23T02:50:15.620Z,87.07
2022-12-23T02:52:42.025Z,87.11
2022-12-23T02:55:08.428Z,87.29
2022-12-23T02:57:34.764Z,87.23
2022-12-23T03:00:01.135Z,87.15
2022-12-23T03:02:27.645Z,87.47
2022-12-23T03:04:53.866Z,87.30
2022-12-23T03:07:20.220Z,87.27
2022-12-23T03:09:46.554Z,87.30
2022-12-23T03:12:12.925Z,87.30
2022-12-23T03:14:39.252Z,87.69
2022-12-23T03:17:05.613Z,87.61
2022-12-23T03:19:32.002Z,87.52
2022-12-23T03:21:58.345Z,87.66
2022-12-23T03:24:24.688Z,87.61
2022-12-23T03:26:51.007Z,87.24
2022-12-23T03:29:17.337Z,86.95
2022-12-23T03:31:43.741Z,86.62
2022-12-23T03:34:10.028Z,85.99
2022-12-23T03:36:36.388Z,85.87
2022-12-23T03:39:02.729Z,86.16
2022-12-23T03:41:29.089Z,85.99
2022-12-23T03:43:55.411Z,85.77
2022-12-23T03:46:21.872Z,85.96
2022-12-23T03:48:48.194Z,86.04
2022-12-23T03:51:14.551Z,86.07
2022-12-23T03:53:40.892Z,86.35
2022-12-23T03:56:07.240Z,86.10
2022-12-23T03:58:33.626Z,86.14
2022-12-23T04:00:59.970Z,86.18
2022-12-23T04:03:26.335Z,86.14
2022-12-23T04:05:52.676Z,86.24
2022-12-23T04:08:19.053Z,86.08
2022-12-23T04:10:45.419Z,86.33
2022-12-23T04:13:11.807Z,86.47
2022-12-23T04:15:38.175Z,86.48
2022-12-23T04:18:04.526Z,86.82
2022-12-23T04:20:30.835Z,86.68
2022-12-23T04:22:57.215Z,86.77
2022-12-23T04:25:23.563Z,86.81
2022-12-23T04:27:49.938Z,86.63
2022-12-23T04:30:16.266Z,86.35
2022-12-23T04:32:42.688Z,86.59
2022-12-23T04:35:09.008Z,86.59
2022-12-23T04:37:35.343Z,86.89
2022-12-23T04:40:01.779Z,87.60
2022-12-23T04:42:28.054Z,88.32
2022-12-23T04:44:54.382Z,88.47
2022-12-23T04:47:20.732Z,88.61
2022-12-23T04:49:47.133Z,88.94
2022-12-23T04:52:13.472Z,89.21
2022-12-23T04:54:45.788Z,89.43
2022-12-23T04:57:06.207Z,89.85
2022-12-23T04:59:32.554Z,89.85
2022-12-23T05:01:59.006Z,89.66
2022-12-23T05:04:25.299Z,89.52
2022-12-23T05:06:51.607Z,89.59
2022-12-23T05:09:17.969Z,89.87
2022-12-23T05:11:44.336Z,89.38
2022-12-23T05:14:10.693Z,88.93
2022-12-23T05:16:37.175Z,88.77
2022-12-23T05:19:03.421Z,89.12
2022-12-23T05:21:29.729Z,89.21
2022-12-23T05:23:56.098Z,89.24
2022-12-23T05:26:22.508Z,89.37
2022-12-23T05:28:48.837Z,89.30
2022-12-23T05:31:15.264Z,89.08
2022-12-23T05:33:41.602Z,89.18
2022-12-23T05:36:07.940Z,89.21
2022-12-23T05:38:34.249Z,88.97
2022-12-23T05:41:00.654Z,88.69
2022-12-23T05:43:26.931Z,88.32
2022-12-23T05:45:53.405Z,88.34
2022-12-23T05:48:19.624Z,88.27
2022-12-23T05:50:46.027Z,88.10
2022-12-23T05:53:12.376Z,87.92
2022-12-23T05:55:38.736Z,88.13
2022-12-23T05:58:05.056Z,88.31
2022-12-23T06:00:31.446Z,87.94
2022-12-23T06:02:59.524Z,87.60
2022-12-23T06:05:24.349Z,87.86
2022-12-23T06:07:50.705Z,87.91
2022-12-23T06:10:17.088Z,88.03
2022-12-23T06:12:43.405Z,88.13
2022-12-23T06:15:09.832Z,88.11
2022-12-23T06:17:36.169Z,88.19
2022-12-23T06:20:02.541Z,88.40
2022-12-23T06:22:28.903Z,88.51
2022-12-23T06:24:55.264Z,88.43
2022-12-23T06:27:21.596Z,88.45
2022-12-23T06:29:47.977Z,87.99
2022-12-23T06:32:14.472Z,88.05
2022-12-23T06:34:40.710Z,88.42
2022-12-23T06:37:07.067Z,88.70
2022-12-23T06:39:33.434Z,88.96
2022-12-23T06:41:59.797Z,88.90
2022-12-23T06:44:26.163Z,89.38
2022-12-23T06:46:52.520Z,89.87
2022-12-23T06:49:18.868Z,89.19
2022-12-23T06:51:45.165Z,88.46
2022-12-23T06:54:11.548Z,88.84
2022-12-23T06:56:37.865Z,89.41
2022-12-23T06:59:04.243Z,89.62
2022-12-23T07:01:30.658Z,89.41
2022-12-23T07:03:56.945Z,88.45
2022-12-23T07:06:23.262Z,88.34
2022-12-23T07:08:49.630Z,88.04
2022-12-23T07:11:15.943Z,88.35
2022-12-23T07:13:42.335Z,88.34
2022-12-23T07:16:08.737Z,89.09
2022-12-23T07:18:35.026Z,89.02
2022-12-23T07:21:01.352Z,88.58
2022-12-23T07:23:27.734Z,88.15
2022-12-23T07:25:54.080Z,87.55
2022-12-23T07:28:20.421Z,87.38
2022-12-23T07:30:46.787Z,87.21
2022-12-23T07:33:13.489Z,86.97
2022-12-23T07:35:39.821Z,86.53
2022-12-23T07:38:06.235Z,86.33
2022-12-23T07:40:32.655Z,85.69
2022-12-23T07:42:59.063Z,85.01
2022-12-23T07:45:25.398Z,84.87
2022-12-23T07:47:51.731Z,84.81
2022-12-23T07:50:18.073Z,84.50
2022-12-23T07:52:44.480Z,84.12
2022-12-23T07:55:10.817Z,83.68
2022-12-23T07:57:37.208Z,83.42
2022-12-23T08:00:03.552Z,82.11
2022-12-23T08:02:30.119Z,79.97
2022-12-23T08:04:56.299Z,77.14
2022-12-23T08:07:22.606Z,75.44
2022-12-23T08:09:48.925Z,73.79
2022-12-23T08:12:15.414Z,72.78
2022-12-23T08:14:41.714Z,71.16
2022-12-23T08:17:08.153Z,69.94
2022-12-23T08:19:34.470Z,69.73
2022-12-23T08:22:00.822Z,67.76
2022-12-23T08:24:27.267Z,66.20
2022-12-23T08:26:53.621Z,65.07
2022-12-23T08:29:19.956Z,66.49
2022-12-23T08:31:46.306Z,65.92
2022-12-23T08:34:12.633Z,64.93
2022-12-23T08:36:38.990Z,63.70
2022-12-23T08:39:05.360Z,64.58
2022-12-23T08:41:31.708Z,63.09
2022-12-23T08:43:58.074Z,62.74
2022-12-23T08:46:24.550Z,61.75
2022-12-23T08:48:50.763Z,61.22
2022-12-23T08:51:17.178Z,60.88
2022-12-23T08:53:43.500Z,60.35
2022-12-23T08:56:09.904Z,57.47
2022-12-23T08:58:36.230Z,57.63
2022-12-23T09:01:02.654Z,58.38
2022-12-23T09:03:29.052Z,58.93
2022-12-23T09:05:55.348Z,58.22
2022-12-23T09:08:21.670Z,57.52
2022-12-23T09:10:48.068Z,56.81
2022-12-23T09:13:22.285Z,57.99
2022-12-23T09:15:41.121Z,57.05
2022-12-23T09:18:07.451Z,57.24
2022-12-23T09:20:33.792Z,57.35
2022-12-23T09:23:00.127Z,56.79
2022-12-23T09:25:26.439Z,55.72
2022-12-23T09:27:52.802Z,56.83
2022-12-23T09:30:19.118Z,57.72
2022-12-23T09:32:45.488Z,57.44
2022-12-23T09:35:11.824Z,58.30
2022-12-23T09:37:38.188Z,56.99
2022-12-23T09:40:04.580Z,55.80
2022-12-23T09:42:30.892Z,57.46
2022-12-23T09:44:57.257Z,58.14
2022-12-23T09:47:23.606Z,58.71
2022-12-23T09:49:50.033Z,59.12
2022-12-23T09:52:16.369Z,58.96
2022-12-23T09:54:42.735Z,58.21
2022-12-23T09:57:09.121Z,58.50
2022-12-23T09:59:35.468Z,58.11
2022-12-23T10:02:01.904Z,56.76
2022-12-23T10:04:28.208Z,57.52
2022-12-23T10:06:57.761Z,58.12
2022-12-23T10:09:20.862Z,58.91
2022-12-23T10:11:47.231Z,59.03
2022-12-23T10:14:13.604Z,58.90
2022-12-23T10:16:40.057Z,59.37
2022-12-23T10:19:06.353Z,59.51
2022-12-23T10:21:32.665Z,60.38
2022-12-23T10:23:59.034Z,60.17
2022-12-23T10:26:25.424Z,60.40
2022-12-23T10:28:51.764Z,61.01
2022-12-23T10:31:39.385Z,61.59
2022-12-23T10:33:44.447Z,61.63
2022-12-23T10:36:10.845Z,61.32
2022-12-23T10:38:37.179Z,61.54
2022-12-23T10:41:07.129Z,62.11
2022-12-23T10:43:29.836Z,62.27
2022-12-23T10:45:56.159Z,61.63
2022-12-23T10:48:22.547Z,60.92
2022-12-23T10:50:48.921Z,60.29
2022-12-23T10:53:15.254Z,60.47
2022-12-23T10:55:41.581Z,60.14
2022-12-23T10:58:07.999Z,59.89
2022-12-23T11:00:34.462Z,58.43
2022-12-23T11:03:00.900Z,59.41
2022-12-23T11:05:27.158Z,60.12
2022-12-23T11:07:53.511Z,59.91
2022-12-23T11:10:19.855Z,61.24
2022-12-23T11:12:46.244Z,61.99
2022-12-23T11:15:12.575Z,62.17
2022-12-23T11:17:38.980Z,62.29
2022-12-23T11:20:05.348Z,62.38
2022-12-23T11:22:31.747Z,60.77
2022-12-23T11:24:58.058Z,59.15
2022-12-23T11:27:24.426Z,59.12
2022-12-23T11:29:50.747Z,59.28
2022-12-23T11:32:17.140Z,59.94
2022-12-23T11:34:43.482Z,61.49
2022-12-23T11:37:09.832Z,62.38
2022-12-23T11:39:36.189Z,63.25
2022-12-23T11:42:02.563Z,64.30
2022-12-23T11:44:28.882Z,64.87
2022-12-23T11:46:55.230Z,65.43
2022-12-23T11:49:21.591Z,65.75
2022-12-23T11:51:47.912Z,66.32
2022-12-23T11:54:14.248Z,66.56
2022-12-23T11:56:40.610Z,66.21
2022-12-23T11:59:06.935Z,66.44
2022-12-23T12:01:33.257Z,66.71
2022-12-23T12:03:59.708Z,67.08
2022-12-23T12:06:25.966Z,66.96
2022-12-23T12:08:52.346Z,66.80
2022-12-23T12:11:18.636Z,66.82
2022-12-23T12:13:44.975Z,66.79
2022-12-23T12:16:11.371Z,66.22
2022-12-23T12:18:37.730Z,65.99
2022-12-23T12:21:04.051Z,65.34
2022-12-23T12:23:30.501Z,64.79
2022-12-23T12:25:56.847Z,64.72
2022-12-23T12:28:23.236Z,64.69
2022-12-23T12:30:49.752Z,64.58
2022-12-23T12:33:16.058Z,63.37
2022-12-23T12:35:42.462Z,63.60
2022-12-23T12:38:08.828Z,62.79
2022-12-23T12:40:35.192Z,62.00
2022-12-23T12:43:01.624Z,61.51
2022-12-23T12:45:28.093Z,61.58
2022-12-23T12:47:57.037Z,61.73
2022-12-23T12:50:20.726Z,61.83
2022-12-23T12:52:47.098Z,62.19
2022-12-23T12:55:13.436Z,62.17
2022-12-23T12:57:39.784Z,61.96
2022-12-23T13:00:07.061Z,62.30
2022-12-23T13:02:32.495Z,62.31
2022-12-23T13:04:58.789Z,62.34
2022-12-23T13:07:25.140Z,62.89
2022-12-23T13:09:51.464Z,63.59
2022-12-23T13:12:17.851Z,63.77
2022-12-23T13:14:44.255Z,63.79
2022-12-23T13:17:10.725Z,62.62
2022-12-23T13:19:36.973Z,61.05
2022-12-23T13:22:03.359Z,58.99
2022-12-23T13:24:29.679Z,57.77
2022-12-23T13:26:56.099Z,57.35
2022-12-23T13:29:22.462Z,57.10
2022-12-23T13:31:48.843Z,56.76
2022-12-23T13:34:15.196Z,56.53
2022-12-23T13:36:41.627Z,56.93
2022-12-23T13:39:07.946Z,56.40
2022-12-23T13:41:34.333Z,56.16
2022-12-23T13:44:00.640Z,56.47
2022-12-23T13:46:27.041Z,56.53
2022-12-23T13:48:53.744Z,56.05
2022-12-23T13:51:20.120Z,56.75
2022-12-23T13:53:46.494Z,56.65
2022-12-23T13:56:12.868Z,57.58
2022-12-23T13:58:39.193Z,58.25
2022-12-23T14:01:05.625Z,59.08
2022-12-23T14:03:31.904Z,59.29
2022-12-23T14:05:58.393Z,59.77
2022-12-23T14:08:24.715Z,60.57
2022-12-23T14:10:51.104Z,61.67
2022-12-23T14:13:17.414Z,62.45
2022-12-23T14:15:43.831Z,63.31
2022-12-23T14:18:10.119Z,63.69
2022-12-23T14:20:36.505Z,63.74
2022-12-23T14:23:02.824Z,64.34
2022-12-23T14:25:29.184Z,64.74
2022-12-23T14:27:55.524Z,65.39
2022-12-23T14:30:21.890Z,65.67
2022-12-23T14:32:48.262Z,66.29
2022-12-23T14:35:14.583Z,66.67
2022-12-23T14:37:40.902Z,67.35
2022-12-23T14:40:07.282Z,67.42
2022-12-23T14:42:33.599Z,67.40
2022-12-23T14:44:59.983Z,67.79
2022-12-23T14:47:26.332Z,68.23
2022-12-23T14:49:52.711Z,68.23
2022-12-23T14:52:19.033Z,68.54
2022-12-23T14:55:06.097Z,68.40
2022-12-23T14:57:11.719Z,68.29
2022-12-23T14:59:38.071Z,68.70
2022-12-23T15:02:04.498Z,68.97
2022-12-23T15:04:30.800Z,69.42
2022-12-23T15:06:57.155Z,69.64
2022-12-23T15:09:23.491Z,70.22
2022-12-23T15:11:49.812Z,70.64
2022-12-23T15:14:16.191Z,70.52
2022-12-23T15:16:42.659Z,71.48
2022-12-23T15:19:08.891Z,71.20
2022-12-23T15:21:35.244Z,72.12
2022-12-23T15:24:01.629Z,72.63
2022-12-23T15:26:27.979Z,72.10
2022-12-23T15:28:54.318Z,72.59
2022-12-23T15:31:20.752Z,73.00
2022-12-23T15:34:04.333Z,74.51
2022-12-23T15:36:13.467Z,73.67
2022-12-23T15:38:39.853Z,72.53
2022-12-23T15:41:06.206Z,74.21
2022-12-23T15:43:32.598Z,72.88
2022-12-23T15:45:58.950Z,72.98
2022-12-23T15:48:25.297Z,73.66
2022-12-23T15:50:51.651Z,72.71
2022-12-23T15:53:18.038Z,74.47
2022-12-23T15:55:44.343Z,73.91
2022-12-23T15:58:10.683Z,73.37
2022-12-23T16:00:37.056Z,73.74
2022-12-23T16:03:06.686Z,74.09
2022-12-23T16:05:29.746Z,74.63
2022-12-23T16:07:56.112Z,75.13
2022-12-23T16:10:22.447Z,75.32
2022-12-23T16:12:48.847Z,75.52
2022-12-23T16:15:15.162Z,75.88
2022-12-23T16:17:41.590Z,76.18
2022-12-23T16:20:07.960Z,76.52
2022-12-23T16:22:34.345Z,76.97
2022-12-23T16:25:00.654Z,77.28
2022-12-23T16:27:27.053Z,77.40
2022-12-23T16:29:53.409Z,77.57
2022-12-23T16:32:19.889Z,78.05
2022-12-23T16:34:46.176Z,78.16
2022-12-23T16:37:12.520Z,78.50
2022-12-23T16:39:38.841Z,78.97
2022-12-23T16:42:05.178Z,79.18
2022-12-23T16:44:31.586Z,79.26
2022-12-23T16:46:58.000Z,79.57
2022-12-23T16:49:28.128Z,79.76
2022-12-23T16:51:50.710Z,80.20
2022-12-23T16:54:17.082Z,80.76
2022-12-23T16:56:43.429Z,81.02
2022-12-23T16:59:09.751Z,81.04
2022-12-23T17:01:36.182Z,81.16
2022-12-23T17:04:02.500Z,81.45
2022-12-23T17:06:28.861Z,81.71
2022-12-23T17:08:55.214Z,82.16
2022-12-23T17:11:21.605Z,82.43
2022-12-23T17:13:47.913Z,82.55
2022-12-23T17:16:14.286Z,82.61
2022-12-23T17:18:40.628Z,82.45
2022-12-23T17:21:07.015Z,82.85
2022-12-23T17:23:33.340Z,82.96
2022-12-23T17:25:59.685Z,82.81
2022-12-23T17:28:26.002Z,82.98
2022-12-23T17:30:52.388Z,83.34
2022-12-23T17:33:18.742Z,83.94
2022-12-23T17:35:45.156Z,84.41
2022-12-23T17:38:11.470Z,84.83
2022-12-23T17:40:37.808Z,85.06
2022-12-23T17:43:04.168Z,85.04
2022-12-23T17:45:30.588Z,85.42
2022-12-23T17:47:56.880Z,85.31
2022-12-23T17:50:23.214Z,85.34
2022-12-23T17:52:49.573Z,85.74
2022-12-23T17:55:15.996Z,86.50
2022-12-23T17:57:42.349Z,86.12
2022-12-23T18:00:08.693Z,86.12
2022-12-23T18:02:35.062Z,86.19
2022-12-23T18:05:01.402Z,85.84
2022-12-23T18:07:27.715Z,85.67
2022-12-23T18:09:54.064Z,85.54
2022-12-23T18:12:24.960Z,85.68
2022-12-23T18:14:46.771Z,85.94
2022-12-23T18:17:13.216Z,86.58
2022-12-23T18:19:39.499Z,86.73
2022-12-23T18:22:05.789Z,86.67
2022-12-23T18:24:32.169Z,86.38
2022-12-23T18:26:58.529Z,86.46
2022-12-23T18:29:24.870Z,85.98
2022-12-23T18:31:52.313Z,85.62
2022-12-23T18:34:17.614Z,85.49
2022-12-23T18:36:43.947Z,85.19
2022-12-23T18:39:10.296Z,84.94
2022-12-23T18:41:36.622Z,84.84
2022-12-23T18:44:02.965Z,84.85
2022-12-23T18:46:29.430Z,85.46
2022-12-23T18:48:55.719Z,85.61
2022-12-23T18:51:22.057Z,85.44
2022-12-23T18:53:48.392Z,85.19
2022-12-23T18:56:14.730Z,85.64
2022-12-23T18:58:41.084Z,86.10
2022-12-23T19:01:07.491Z,85.89
2022-12-23T19:03:33.797Z,86.11
2022-12-23T19:06:00.123Z,86.41
2022-12-23T19:08:27.707Z,86.37
2022-12-23T19:10:52.826Z,86.66
2022-12-23T19:13:19.219Z,86.86
2022-12-23T19:15:45.595Z,86.48
2022-12-23T19:18:11.902Z,86.28
2022-12-23T19:20:38.266Z,86.86
2022-12-23T19:23:04.648Z,87.15
2022-12-23T19:25:30.975Z,87.21
2022-12-23T19:27:57.365Z,87.07
2022-12-23T19:30:23.711Z,87.09
2022-12-23T19:32:50.062Z,87.30
2022-12-23T19:35:16.369Z,87.25
2022-12-23T19:37:42.748Z,86.86
2022-12-23T19:40:09.060Z,86.51
2022-12-23T19:42:35.464Z,86.66
2022-12-23T19:45:01.822Z,87.76
2022-12-23T19:47:28.166Z,88.24
2022-12-23T19:49:54.529Z,88.63
2022-12-23T19:52:20.879Z,88.74
2022-12-23T19:54:47.244Z,88.83
2022-12-23T19:57:13.649Z,88.92
2022-12-23T19:59:39.938Z,89.16
2022-12-23T20:02:06.327Z,89.53
2022-12-23T20:04:32.621Z,89.92
2022-12-23T20:06:58.959Z,90.09
2022-12-23T20:09:25.290Z,89.92
2022-12-23T20:11:51.669Z,89.63
2022-12-23T20:14:17.978Z,89.82
2022-12-23T20:16:44.376Z,89.88
2022-12-23T20:19:10.729Z,89.87
2022-12-23T20:21:37.059Z,89.77
2022-12-23T20:24:03.437Z,89.60
2022-12-23T20:26:29.874Z,90.30
2022-12-23T20:28:56.133Z,92.87
2022-12-23T20:31:22.648Z,93.85
2022-12-23T20:33:48.881Z,92.17
2022-12-23T20:36:15.291Z,90.50
2022-12-23T20:38:41.615Z,89.12
2022-12-23T20:41:07.964Z,89.50
2022-12-23T20:43:34.321Z,87.28
2022-12-23T20:46:00.736Z,86.75
2022-12-23T20:48:33.529Z,86.98
2022-12-23T20:50:53.414Z,87.71
2022-12-23T20:53:19.772Z,88.20
2022-12-23T20:55:46.106Z,89.18
2022-12-23T20:58:12.429Z,89.30
2022-12-23T21:00:38.816Z,89.27
2022-12-23T21:03:10.214Z,88.77
2022-12-23T21:05:31.527Z,89.33
2022-12-23T21:07:57.837Z,91.09
2022-12-23T21:10:24.184Z,92.38
2022-12-23T21:12:50.582Z,93.17
2022-12-23T21:15:16.903Z,93.44
2022-12-23T21:17:43.265Z,93.83
2022-12-23T21:20:09.634Z,93.99
2022-12-23T21:22:36.038Z,93.81
2022-12-23T21:25:02.418Z,93.79
2022-12-23T21:27:28.751Z,94.14
2022-12-23T21:29:55.110Z,94.24
2022-12-23T21:32:21.430Z,94.22
2022-12-23T21:34:47.816Z,94.09
2022-12-23T21:37:14.183Z,94.02
2022-12-23T21:39:40.558Z,93.50
2022-12-23T21:42:06.863Z,93.50
2022-12-23T21:44:33.246Z,93.32
2022-12-23T21:46:59.689Z,93.95
2022-12-23T21:49:25.942Z,94.09
2022-12-23T21:51:52.286Z,93.62
2022-12-23T21:54:18.662Z,93.75
2022-12-23T21:56:44.958Z,93.51
2022-12-23T21:59:11.388Z,93.20
2022-12-23T22:01:37.702Z,93.52
2022-12-23T22:04:04.014Z,92.97
2022-12-23T22:06:30.325Z,92.25
2022-12-23T22:08:56.675Z,92.71
2022-12-23T22:11:22.999Z,91.35
2022-12-23T22:13:49.417Z,91.82
2022-12-23T22:16:15.777Z,91.92
2022-12-23T22:18:42.082Z,92.03
2022-12-23T22:21:08.441Z,91.56
2022-12-23T22:23:34.788Z,92.85
2022-12-23T22:26:01.217Z,93.43
2022-12-23T22:28:27.537Z,93.55
2022-12-23T22:30:53.856Z,93.28
2022-12-23T22:33:20.178Z,92.84
2022-12-23T22:35:46.540Z,92.41
2022-12-23T22:38:12.895Z,92.30
2022-12-23T22:40:39.276Z,92.16
2022-12-23T22:43:05.624Z,92.25
2022-12-23T22:45:32.053Z,92.17
2022-12-23T22:47:58.371Z,92.22
2022-12-23T22:50:24.755Z,92.53
2022-12-23T22:52:51.101Z,93.32
2022-12-23T22:55:17.445Z,93.35
2022-12-23T22:57:43.765Z,93.69
2022-12-23T23:00:12.614Z,94.73
2022-12-23T23:02:36.486Z,95.26
2022-12-23T23:05:07.716Z,95.65
2022-12-23T23:07:29.195Z,96.10
2022-12-23T23:09:55.525Z,96.51
2022-12-23T23:12:21.883Z,96.78
2022-12-23T23:14:48.257Z,96.84
2022-12-23T23:17:14.604Z,96.47
2022-12-23T23:19:40.946Z,96.12
2022-12-23T23:22:07.315Z,95.74
2022-12-23T23:24:33.658Z,95.51
2022-12-23T23:27:00.017Z,95.53
2022-12-23T23:29:26.433Z,95.51
2022-12-23T23:31:52.791Z,95.88
2022-12-23T23:34:19.048Z,96.02
2022-12-23T23:36:45.408Z,96.13
2022-12-23T23:39:11.812Z,96.30
2022-12-23T23:41:38.130Z,96.25
2022-12-23T23:44:04.464Z,96.09
2022-12-23T23:46:31.062Z,96.48
2022-12-23T23:48:57.303Z,96.28
2022-12-23T23:51:23.635Z,96.33
2022-12-23T23:53:50.033Z,96.30
2022-12-23T23:56:20.396Z,96.10
2022-12-23T23:58:42.760Z,95.97
